createdAt,value
2022-12-03T00:01:20.720Z,5.60
2022-12-03T00:04:42.732Z,5.70
2022-12-03T00:08:04.826Z,5.70
2022-12-03T00:11:26.976Z,5.60
2022-12-03T00:14:49.085Z,5.60
2022-12-03T00:18:11.104Z,5.60
2022-12-03T00:21:33.390Z,5.70
2022-12-03T00:24:55.768Z,5.60
2022-12-03T00:28:17.972Z,5.60
2022-12-03T00:31:40.117Z,5.60
2022-12-03T00:35:02.299Z,5.60
2022-12-03T00:38:24.504Z,5.50
2022-12-03T00:41:46.749Z,5.50
2022-12-03T00:45:09.329Z,5.50
2022-12-03T00:48:31.353Z,5.50
2022-12-03T00:51:53.335Z,5.40
2022-12-03T00:55:16.011Z,5.40
2022-12-03T00:58:38.037Z,5.40
2022-12-03T01:02:00.168Z,5.40
2022-12-03T01:05:22.337Z,5.40
2022-12-03T01:08:44.289Z,5.30
2022-12-03T01:12:06.485Z,5.30
2022-12-03T01:15:28.529Z,5.40
2022-12-03T01:18:52.521Z,5.30
2022-12-03T01:22:14.580Z,5.40
2022-12-03T01:25:36.771Z,5.40
2022-12-03T01:28:58.836Z,5.40
2022-12-03T01:32:20.895Z,5.40
2022-12-03T01:35:42.895Z,5.50
2022-12-03T01:39:05.371Z,5.50
2022-12-03T01:42:31.444Z,5.50
2022-12-03T01:45:53.615Z,5.50
2022-12-03T01:49:26.182Z,5.60
2022-12-03T01:52:48.531Z,5.60
2022-12-03T01:56:14.898Z,5.60
2022-12-03T01:59:38.788Z,5.70
2022-12-03T02:03:04.036Z,5.70
2022-12-03T02:06:28.664Z,5.70
2022-12-03T02:09:51.114Z,5.60
2022-12-03T02:13:13.220Z,5.60
2022-12-03T02:16:37.303Z,5.50
2022-12-03T02:20:00.167Z,5.50
2022-12-03T02:23:36.136Z,5.40
2022-12-03T02:26:58.202Z,5.40
2022-12-03T02:30:23.057Z,5.40
2022-12-03T02:33:45.223Z,5.40
2022-12-03T02:37:12.081Z,5.30
2022-12-03T02:40:34.585Z,5.30
2022-12-03T02:43:57.050Z,5.30
2022-12-03T02:47:20.485Z,5.30
2022-12-03T02:50:48.679Z,5.40
2022-12-03T02:54:10.724Z,5.30
2022-12-03T02:57:34.329Z,5.40
2022-12-03T03:00:56.973Z,5.40
2022-12-03T03:04:19.725Z,5.40
2022-12-03T03:07:42.584Z,5.40
2022-12-03T03:11:04.862Z,5.50
2022-12-03T03:14:27.086Z,5.60
2022-12-03T03:17:49.351Z,5.60
2022-12-03T03:21:12.725Z,5.60
2022-12-03T03:24:34.787Z,5.60
2022-12-03T03:27:57.510Z,5.60
2022-12-03T03:31:23.123Z,5.60
2022-12-03T03:34:45.281Z,5.70
2022-12-03T03:38:08.638Z,5.70
2022-12-03T03:41:31.299Z,5.60
2022-12-03T03:44:53.693Z,5.70
2022-12-03T03:48:16.169Z,5.70
2022-12-03T03:51:39.788Z,5.70
2022-12-03T03:55:01.959Z,5.70
2022-12-03T03:58:24.108Z,5.70
2022-12-03T04:01:46.799Z,5.70
2022-12-03T04:05:16.474Z,5.60
2022-12-03T04:08:38.533Z,5.60
2022-12-03T04:12:18.937Z,5.60
2022-12-03T04:15:41.007Z,5.50
2022-12-03T04:19:03.025Z,5.60
2022-12-03T04:22:40.686Z,5.50
2022-12-03T04:26:21.393Z,5.50
2022-12-03T04:29:43.386Z,5.50
2022-12-03T04:33:23.897Z,5.60
2022-12-03T04:36:46.327Z,5.60
2022-12-03T04:40:28.811Z,5.50
2022-12-03T04:44:09.493Z,5.50
2022-12-03T04:47:34.252Z,5.50
2022-12-03T04:50:58.962Z,5.50
2022-12-03T04:54:21.081Z,5.50
2022-12-03T04:57:43.080Z,5.50
2022-12-03T05:01:05.129Z,5.50
2022-12-03T05:04:27.323Z,5.50
2022-12-03T05:07:49.810Z,5.50
2022-12-03T05:11:11.903Z,5.50
2022-12-03T05:14:33.930Z,5.50
2022-12-03T05:17:56.010Z,5.50
2022-12-03T05:21:18.154Z,5.50
2022-12-03T05:24:40.175Z,5.50
2022-12-03T05:28:02.435Z,5.50
2022-12-03T05:31:24.562Z,5.50
2022-12-03T05:34:46.634Z,5.50
2022-12-03T05:38:08.726Z,5.50
2022-12-03T05:42:10.315Z,5.50
2022-12-03T05:45:43.435Z,5.40
2022-12-03T05:49:05.458Z,5.40
2022-12-03T05:52:27.587Z,5.50
2022-12-03T05:55:49.619Z,5.50
2022-12-03T05:59:11.691Z,5.50
2022-12-03T06:02:34.268Z,5.50
2022-12-03T06:05:56.390Z,5.50
2022-12-03T06:09:18.400Z,5.50
2022-12-03T06:12:41.239Z,5.60
2022-12-03T06:16:03.473Z,5.60
2022-12-03T06:19:25.547Z,5.60
2022-12-03T06:22:48.567Z,5.60
2022-12-03T06:26:14.237Z,5.60
2022-12-03T06:29:36.360Z,5.60
2022-12-03T06:32:58.328Z,5.70
2022-12-03T06:36:23.248Z,5.70
2022-12-03T06:39:45.501Z,5.70
2022-12-03T06:43:07.913Z,5.70
2022-12-03T06:46:30.322Z,5.70
2022-12-03T06:49:52.441Z,5.70
2022-12-03T06:53:14.503Z,5.80
2022-12-03T06:56:41.844Z,5.80
2022-12-03T07:00:08.995Z,5.80
2022-12-03T07:03:31.031Z,5.90
2022-12-03T07:06:53.230Z,5.90
2022-12-03T07:10:15.326Z,5.90
2022-12-03T07:13:37.327Z,6.00
2022-12-03T07:16:59.432Z,6.00
2022-12-03T07:20:21.473Z,6.00
2022-12-03T07:23:43.464Z,6.00
2022-12-03T07:27:05.491Z,6.10
2022-12-03T07:30:27.888Z,6.10
2022-12-03T07:33:52.254Z,6.10
2022-12-03T07:37:18.637Z,6.10
2022-12-03T07:40:43.563Z,6.10
2022-12-03T07:44:13.763Z,6.10
2022-12-03T07:47:36.846Z,6.10
2022-12-03T07:50:58.952Z,6.10
2022-12-03T07:54:21.739Z,6.20
2022-12-03T07:57:43.950Z,6.20
2022-12-03T08:01:06.163Z,6.30
2022-12-03T08:04:28.377Z,6.30
2022-12-03T08:07:50.411Z,6.40
2022-12-03T08:11:15.018Z,6.40
2022-12-03T08:14:37.049Z,6.40
2022-12-03T08:18:00.709Z,6.40
2022-12-03T08:21:23.621Z,6.40
2022-12-03T08:24:45.597Z,6.50
2022-12-03T08:28:27.172Z,6.50
2022-12-03T08:32:10.421Z,6.50
2022-12-03T08:35:32.473Z,6.60
2022-12-03T08:39:27.695Z,6.70
2022-12-03T08:42:49.994Z,6.70
2022-12-03T08:46:17.780Z,6.90
2022-12-03T08:49:40.609Z,7.00
2022-12-03T08:53:29.915Z,7.10
2022-12-03T08:56:51.990Z,7.10
2022-12-03T09:00:21.063Z,7.20
2022-12-03T09:03:51.832Z,7.30
2022-12-03T09:07:13.851Z,7.30
2022-12-03T09:10:36.382Z,7.40
2022-12-03T09:13:58.422Z,7.40
2022-12-03T09:17:20.429Z,7.40
2022-12-03T09:20:42.745Z,7.40
2022-12-03T09:24:04.949Z,7.50
2022-12-03T09:27:26.956Z,7.50
2022-12-03T09:30:49.091Z,7.60
2022-12-03T09:34:11.262Z,7.80
2022-12-03T09:37:33.368Z,8.00
2022-12-03T09:40:55.533Z,8.10
2022-12-03T09:44:18.457Z,8.20
2022-12-03T09:48:00.712Z,8.20
2022-12-03T09:51:24.636Z,8.30
2022-12-03T09:54:52.117Z,8.30
2022-12-03T09:58:18.004Z,8.30
2022-12-03T10:01:40.200Z,8.20
2022-12-03T10:05:02.568Z,8.10
2022-12-03T10:08:32.719Z,8.00
2022-12-03T10:11:57.414Z,7.90
2022-12-03T10:15:22.881Z,7.90
2022-12-03T10:18:49.864Z,7.90
2022-12-03T10:22:11.821Z,8.00
2022-12-03T10:25:49.183Z,8.10
2022-12-03T10:29:17.952Z,8.10
2022-12-03T10:32:45.336Z,8.20
2022-12-03T10:36:26.745Z,8.20
2022-12-03T10:40:00.852Z,8.20
2022-12-03T10:43:25.362Z,8.10
2022-12-03T10:47:06.041Z,8.10
2022-12-03T10:50:28.305Z,8.10
2022-12-03T10:53:51.291Z,8.10
2022-12-03T10:57:13.959Z,8.20
2022-12-03T11:00:35.989Z,8.20
2022-12-03T11:04:04.433Z,8.10
2022-12-03T11:07:26.692Z,8.10
2022-12-03T11:11:16.324Z,8.10
2022-12-03T11:14:57.622Z,8.10
2022-12-03T11:18:38.189Z,8.00
2022-12-03T11:22:06.384Z,8.00
2022-12-03T11:25:28.478Z,7.90
2022-12-03T11:28:55.378Z,7.80
2022-12-03T11:32:55.720Z,7.80
2022-12-03T11:36:27.790Z,7.70
2022-12-03T11:40:21.994Z,7.80
2022-12-03T11:43:53.254Z,7.80
2022-12-03T11:47:16.780Z,7.80
2022-12-03T11:50:53.635Z,7.80
2022-12-03T11:54:21.568Z,7.90
2022-12-03T11:57:43.955Z,7.90
2022-12-03T12:01:07.867Z,7.90
2022-12-03T12:04:46.525Z,7.90
2022-12-03T12:08:19.721Z,7.90
2022-12-03T12:11:43.624Z,7.80
2022-12-03T12:15:33.661Z,7.80
2022-12-03T12:18:56.379Z,7.80
2022-12-03T12:22:27.239Z,7.80
2022-12-03T12:25:53.971Z,7.80
2022-12-03T12:29:16.461Z,7.80
2022-12-03T12:32:48.543Z,7.80
2022-12-03T12:36:10.951Z,7.90
2022-12-03T12:39:32.966Z,7.90
2022-12-03T12:42:58.376Z,8.00
2022-12-03T12:46:46.526Z,8.00
2022-12-03T12:50:11.120Z,8.00
2022-12-03T12:53:35.621Z,8.10
2022-12-03T12:56:57.643Z,8.10
2022-12-03T13:00:23.643Z,8.10
2022-12-03T13:03:46.042Z,8.10
2022-12-03T13:07:09.383Z,8.10
2022-12-03T13:10:34.423Z,8.10
2022-12-03T13:13:56.551Z,8.00
2022-12-03T13:17:24.567Z,8.10
2022-12-03T13:20:46.677Z,8.10
2022-12-03T13:24:30.549Z,8.10
2022-12-03T13:27:52.594Z,8.10
2022-12-03T13:31:29.137Z,8.10
2022-12-03T13:34:51.247Z,8.10
2022-12-03T13:38:16.687Z,8.10
2022-12-03T13:41:57.401Z,8.10
2022-12-03T13:45:19.237Z,8.10
2022-12-03T13:48:43.266Z,8.10
2022-12-03T13:52:15.872Z,8.10
2022-12-03T13:55:45.102Z,8.20
2022-12-03T13:59:07.516Z,8.10
2022-12-03T14:02:29.675Z,8.10
2022-12-03T14:05:51.699Z,8.10
2022-12-03T14:09:13.830Z,8.10
2022-12-03T14:12:35.833Z,8.10
2022-12-03T14:15:58.050Z,8.10
2022-12-03T14:19:20.097Z,8.10
2022-12-03T14:22:42.969Z,8.10
2022-12-03T14:26:05.193Z,8.10
2022-12-03T14:29:27.381Z,8.00
2022-12-03T14:32:49.778Z,8.00
2022-12-03T14:36:11.827Z,8.00
2022-12-03T14:39:33.871Z,7.90
2022-12-03T14:42:55.921Z,7.90
2022-12-03T14:46:17.992Z,7.90
2022-12-03T14:49:40.547Z,7.90
2022-12-03T14:53:02.751Z,7.90
2022-12-03T14:56:24.752Z,7.80
2022-12-03T14:59:47.198Z,7.80
2022-12-03T15:03:09.235Z,7.80
2022-12-03T15:06:31.657Z,7.80
2022-12-03T15:09:54.043Z,7.80
2022-12-03T15:13:16.252Z,7.80
2022-12-03T15:16:38.333Z,7.80
2022-12-03T15:20:00.433Z,7.80
2022-12-03T15:23:22.683Z,7.70
2022-12-03T15:26:44.763Z,7.70
2022-12-03T15:30:07.823Z,7.70
2022-12-03T15:33:29.883Z,7.70
2022-12-03T15:36:52.018Z,7.60
2022-12-03T15:40:14.151Z,7.60
2022-12-03T15:43:37.611Z,7.60
2022-12-03T15:46:59.950Z,7.60
2022-12-03T15:50:22.649Z,7.60
2022-12-03T15:53:45.397Z,7.60
2022-12-03T15:57:08.918Z,7.60
2022-12-03T16:00:35.314Z,7.60
2022-12-03T16:04:02.338Z,7.60
2022-12-03T16:07:29.061Z,7.60
2022-12-03T16:10:54.506Z,7.60
2022-12-03T16:14:17.228Z,7.60
2022-12-03T16:17:39.751Z,7.60
2022-12-03T16:21:08.573Z,7.60
2022-12-03T16:24:31.681Z,7.60
2022-12-03T16:27:54.214Z,7.60
2022-12-03T16:31:16.914Z,7.60
2022-12-03T16:34:39.722Z,7.60
2022-12-03T16:38:03.151Z,7.60
2022-12-03T16:41:25.769Z,7.60
2022-12-03T16:45:05.147Z,7.60
2022-12-03T16:48:27.760Z,7.60
2022-12-03T16:51:53.556Z,7.60
2022-12-03T16:55:15.794Z,7.60
2022-12-03T16:58:38.122Z,7.70
2022-12-03T17:02:00.514Z,7.70
2022-12-03T17:05:23.107Z,7.70
2022-12-03T17:08:49.882Z,7.70
2022-12-03T17:12:12.618Z,7.70
2022-12-03T17:15:35.175Z,7.70
2022-12-03T17:19:00.377Z,7.70
2022-12-03T17:22:29.821Z,7.70
2022-12-03T17:25:51.989Z,7.70
2022-12-03T17:29:14.448Z,7.70
2022-12-03T17:32:39.887Z,7.70
2022-12-03T17:36:02.515Z,7.70
2022-12-03T17:39:24.913Z,7.70
2022-12-03T17:42:47.412Z,7.70
2022-12-03T17:46:09.712Z,7.70
2022-12-03T17:49:32.370Z,7.70
2022-12-03T17:52:54.831Z,7.70
2022-12-03T17:56:17.389Z,7.60
2022-12-03T17:59:40.362Z,7.70
2022-12-03T18:03:03.492Z,7.70
2022-12-03T18:06:26.920Z,7.70
2022-12-03T18:09:49.649Z,7.70
2022-12-03T18:13:12.557Z,7.60
2022-12-03T18:16:40.194Z,7.60
2022-12-03T18:20:04.505Z,7.70
2022-12-03T18:23:31.333Z,7.60
2022-12-03T18:26:53.972Z,7.60
2022-12-03T18:30:19.761Z,7.70
2022-12-03T18:33:42.526Z,7.60
2022-12-03T18:37:05.201Z,7.70
2022-12-03T18:40:55.870Z,7.70
2022-12-03T18:44:22.703Z,7.60
2022-12-03T18:47:45.365Z,7.60
2022-12-03T18:51:27.946Z,7.60
2022-12-03T18:54:55.602Z,7.60
2022-12-03T18:58:18.924Z,7.70
2022-12-03T19:01:41.672Z,7.70
2022-12-03T19:05:04.852Z,7.70
2022-12-03T19:08:27.700Z,7.70
2022-12-03T19:11:56.657Z,7.70
2022-12-03T19:15:19.774Z,7.70
2022-12-03T19:18:42.346Z,7.70
2022-12-03T19:22:04.893Z,7.70
2022-12-03T19:25:28.327Z,7.70
2022-12-03T19:28:50.878Z,7.70
2022-12-03T19:32:14.005Z,7.70
2022-12-03T19:35:39.908Z,7.70
2022-12-03T19:39:02.458Z,7.70
2022-12-03T19:42:25.121Z,7.70
2022-12-03T19:45:47.651Z,7.70
2022-12-03T19:49:11.064Z,7.70
2022-12-03T19:52:36.890Z,7.70
2022-12-03T19:56:16.745Z,7.70
2022-12-03T19:59:39.224Z,7.70
2022-12-03T20:03:01.956Z,7.70
2022-12-03T20:06:26.496Z,7.70
2022-12-03T20:09:52.503Z,7.70
2022-12-03T20:13:15.677Z,7.70
2022-12-03T20:16:38.943Z,7.70
2022-12-03T20:20:01.428Z,7.70
2022-12-03T20:23:24.000Z,7.70
2022-12-03T20:26:46.397Z,7.80
2022-12-03T20:30:09.845Z,7.80
2022-12-03T20:33:33.981Z,7.80
2022-12-03T20:36:56.483Z,7.80
2022-12-03T20:40:18.717Z,7.80
2022-12-03T20:43:40.938Z,7.80
2022-12-03T20:47:14.827Z,7.80
2022-12-03T20:50:41.015Z,7.80
2022-12-03T20:54:05.519Z,7.80
2022-12-03T20:57:28.292Z,7.80
2022-12-03T21:00:51.577Z,7.80
2022-12-03T21:04:14.135Z,7.80
2022-12-03T21:07:37.298Z,7.80
2022-12-03T21:10:59.935Z,7.80
2022-12-03T21:14:25.292Z,7.90
2022-12-03T21:17:51.015Z,7.80
2022-12-03T21:21:15.332Z,7.80
2022-12-03T21:24:38.014Z,7.80
2022-12-03T21:28:00.614Z,7.90
2022-12-03T21:31:26.189Z,7.80
2022-12-03T21:34:51.740Z,7.90
2022-12-03T21:38:17.258Z,7.90
2022-12-03T21:41:39.385Z,7.80
2022-12-03T21:45:02.813Z,7.90
2022-12-03T21:48:25.597Z,7.90
2022-12-03T21:51:48.237Z,7.80
2022-12-03T21:55:12.785Z,7.80
2022-12-03T21:58:35.992Z,7.90
2022-12-03T22:01:58.370Z,7.80
2022-12-03T22:05:20.440Z,7.90
2022-12-03T22:08:42.974Z,7.90
2022-12-03T22:12:05.411Z,7.90
2022-12-03T22:15:27.674Z,7.90
2022-12-03T22:18:50.076Z,7.90
2022-12-03T22:22:12.062Z,7.90
2022-12-03T22:25:34.087Z,7.90
2022-12-03T22:28:56.354Z,7.90
2022-12-03T22:32:18.411Z,8.00
2022-12-03T22:35:40.426Z,8.00
2022-12-03T22:39:02.489Z,8.00
2022-12-03T22:42:24.966Z,8.00
2022-12-03T22:45:47.956Z,8.00
2022-12-03T22:49:12.582Z,8.00
2022-12-03T22:52:34.629Z,8.10
2022-12-03T22:56:00.762Z,8.10
2022-12-03T22:59:23.096Z,8.20
2022-12-03T23:02:45.211Z,8.20
2022-12-03T23:06:11.394Z,8.20
2022-12-03T23:09:33.599Z,8.20
2022-12-03T23:12:55.910Z,8.20
2022-12-03T23:16:23.667Z,8.30
2022-12-03T23:19:45.923Z,8.30
2022-12-03T23:23:07.931Z,8.30
2022-12-03T23:26:30.282Z,8.40
2022-12-03T23:29:52.473Z,8.40
2022-12-03T23:33:14.655Z,8.40
2022-12-03T23:36:36.791Z,8.40
2022-12-03T23:39:58.773Z,8.40
2022-12-03T23:43:21.374Z,8.40
2022-12-03T23:46:43.797Z,8.50
2022-12-03T23:50:06.626Z,8.50
2022-12-03T23:53:29.722Z,8.50
2022-12-03T23:56:52.077Z,8.40
